Time;durP1;ratioP1;P1;durP2;ratioP2;P2;SDS_P1;SDS_P2;PMS_P1;PMS_P2;Temp;Humidity;BMP_temperature;BMP_pressure;BME280_temperature;BME280_humidity;BME280_pressure;Samples;Min_cycle;Max_cycle;Signal;HPM_P1;HPM_P2
2021/01/16 00:01:06;;;;;;;10.55;6.80;;;;;;;1.75;93.31;103005.69;4804916;29;20539;-84
2021/01/16 00:03:31;;;;;;;11.63;6.50;;;;;;;1.74;93.41;103019.56;4805443;29;20031;-84
2021/01/16 00:06:00;;;;;;;8.88;6.28;;;;;;;1.76;93.72;103017.03;4804584;29;20043;-84
2021/01/16 00:08:27;;;;;;;14.95;6.85;;;;;;;1.88;94.09;103021.66;4825064;29;20045;-84
2021/01/16 00:10:55;;;;;;;9.48;6.18;;;;;;;1.75;94.58;103010.03;4809595;29;20484;-84
2021/01/16 00:13:26;;;;;;;14.18;7.63;;;;;;;1.79;94.35;103022.31;4810129;29;20033;-84
2021/01/16 00:15:52;;;;;;;10.02;7.15;;;;;;;1.81;94.80;103018.03;4795254;29;20100;-84
2021/01/16 00:18:19;;;;;;;14.82;8.32;;;;;;;1.58;95.62;103013.91;4803599;29;20034;-84
2021/01/16 00:20:47;;;;;;;11.50;7.25;;;;;;;1.62;95.96;103036.63;4802761;29;20055;-85
2021/01/16 00:23:14;;;;;;;14.00;8.30;;;;;;;1.56;96.43;103029.53;4799929;29;20090;-84
2021/01/16 00:25:40;;;;;;;10.80;6.72;;;;;;;1.54;97.22;103032.06;4802968;29;20061;-84
2021/01/16 00:28:06;;;;;;;11.70;6.80;;;;;;;1.51;97.26;103023.28;4809466;29;20416;-84
2021/01/16 00:30:33;;;;;;;12.07;7.50;;;;;;;1.46;96.93;103030.97;4807752;29;20061;-84
2021/01/16 00:33:00;;;;;;;13.82;7.55;;;;;;;1.49;98.07;103027.56;4809135;29;20041;-84
2021/01/16 00:35:30;;;;;;;13.60;7.72;;;;;;;1.51;97.46;103031.13;4810552;29;20118;-84
2021/01/16 00:37:56;;;;;;;11.50;7.18;;;;;;;1.53;97.64;103024.22;4815860;29;20043;-84
2021/01/16 00:40:23;;;;;;;12.57;7.53;;;;;;;1.72;96.07;103025.59;4809185;29;20038;-84
2021/01/16 00:42:51;;;;;;;12.70;8.38;;;;;;;1.57;95.87;103015.63;4826765;29;20075;-85
2021/01/16 00:45:18;;;;;;;13.90;7.35;;;;;;;1.58;96.50;103022.63;4824050;29;20056;-85
2021/01/16 00:47:44;;;;;;;13.77;7.28;;;;;;;1.57;97.04;103009.53;4810689;29;20034;-84
2021/01/16 00:50:12;;;;;;;11.77;7.78;;;;;;;1.53;96.81;103012.06;4814032;29;20026;-84
2021/01/16 00:52:38;;;;;;;11.55;6.57;;;;;;;1.63;96.48;103000.16;4809957;29;20038;-84
2021/01/16 00:55:08;;;;;;;11.07;7.10;;;;;;;1.66;96.49;103000.25;4817758;29;20035;-84
2021/01/16 00:57:34;;;;;;;11.50;7.35;;;;;;;1.69;96.49;102997.72;4823262;29;20030;-84
2021/01/16 00:59:59;;;;;;;13.27;7.20;;;;;;;1.77;95.65;102983.16;4800835;29;20138;-84
2021/01/16 01:02:24;;;;;;;11.60;7.80;;;;;;;1.73;97.31;102996.06;4808891;29;20098;-84
2021/01/16 01:04:51;;;;;;;13.27;7.47;;;;;;;1.76;96.90;102997.03;4804152;29;20034;-84
2021/01/16 01:07:16;;;;;;;11.82;8.13;;;;;;;1.66;97.27;102982.00;4831625;29;20059;-83
2021/01/16 01:09:43;;;;;;;10.85;7.03;;;;;;;1.76;96.79;102988.34;4809277;29;20399;-84
2021/01/16 01:12:10;;;;;;;13.10;8.00;;;;;;;1.57;97.53;102966.13;4834767;29;20395;-83
2021/01/16 01:14:36;;;;;;;12.48;7.85;;;;;;;1.71;96.87;102983.00;4826230;29;20030;-83
2021/01/16 01:17:02;;;;;;;18.25;8.73;;;;;;;1.69;97.88;102991.63;4831808;29;20081;-83
2021/01/16 01:19:27;;;;;;;12.50;6.95;;;;;;;1.75;96.93;102990.03;4816151;29;20051;-84
2021/01/16 01:21:53;;;;;;;12.85;7.85;;;;;;;1.72;96.47;102983.88;4826720;29;20038;-84
2021/01/16 01:24:18;;;;;;;12.98;7.20;;;;;;;1.78;97.05;102973.59;4806472;29;20030;-84
2021/01/16 01:26:43;;;;;;;14.18;7.95;;;;;;;1.74;97.27;102987.41;4808241;29;20035;-84
2021/01/16 01:29:09;;;;;;;11.27;7.55;;;;;;;1.71;97.40;102982.13;4807185;29;20033;-83
2021/01/16 01:31:37;;;;;;;11.70;7.82;;;;;;;1.71;97.10;102987.34;4815583;29;20059;-84
2021/01/16 01:34:03;;;;;;;11.82;7.63;;;;;;;1.63;98.36;102978.44;4813285;29;20712;-83
2021/01/16 01:36:28;;;;;;;13.20;8.20;;;;;;;1.50;98.41;102958.97;4839485;29;20066;-84
2021/01/16 01:38:53;;;;;;;13.43;7.90;;;;;;;1.57;97.91;102963.50;4804964;29;20887;-84
2021/01/16 01:41:19;;;;;;;13.52;7.75;;;;;;;1.67;98.10;102967.25;4803580;29;20033;-85
2021/01/16 01:43:44;;;;;;;14.77;9.20;;;;;;;1.76;97.63;102963.16;4812450;29;20034;-83
2021/01/16 01:46:10;;;;;;;11.70;7.70;;;;;;;1.75;97.77;102966.56;4806132;29;20030;-83
2021/01/16 01:48:35;;;;;;;18.27;8.25;;;;;;;1.64;98.34;102959.34;4826990;29;20114;-83
2021/01/16 01:51:00;;;;;;;16.13;7.50;;;;;;;1.61;98.89;102957.53;4818180;29;20026;-83
2021/01/16 01:53:29;;;;;;;14.63;8.75;;;;;;;1.52;99.96;102959.91;4823070;29;20487;-83
2021/01/16 01:55:57;;;;;;;13.32;9.18;;;;;;;1.45;100.00;102965.78;4808677;29;20046;-83
2021/01/16 01:58:24;;;;;;;13.68;8.43;;;;;;;1.39;99.29;102961.28;4804812;29;20051;-83
2021/01/16 02:00:52;;;;;;;13.20;8.57;;;;;;;1.43;99.51;102962.25;4814939;29;20031;-84
2021/01/16 02:03:20;;;;;;;16.88;8.43;;;;;;;1.59;97.05;102964.41;4810570;29;20038;-83
2021/01/16 02:05:46;;;;;;;15.55;8.05;;;;;;;1.58;97.73;102969.59;4779830;30;20031;-83
2021/01/16 02:08:11;;;;;;;14.85;8.23;;;;;;;1.54;98.73;102959.09;4782513;29;20039;-85
2021/01/16 02:10:37;;;;;;;13.27;7.75;;;;;;;1.53;97.38;102966.88;4811365;29;20042;-85
2021/01/16 02:13:02;;;;;;;10.88;7.53;;;;;;;1.72;95.30;102958.69;4806552;29;20031;-83
2021/01/16 02:15:41;;;;;;;14.32;7.40;;;;;;;1.60;95.94;102960.09;4806480;29;20845;-84
2021/01/16 02:18:20;;;;;;;10.57;6.63;;;;;;;1.76;93.77;102954.44;4808885;29;20030;-84
2021/01/16 02:20:46;;;;;;;13.13;6.93;;;;;;;1.80;94.02;102962.34;4806072;29;20050;-84
2021/01/16 02:23:12;;;;;;;11.35;7.00;;;;;;;1.84;93.52;102967.66;4809810;29;20031;-84
2021/01/16 02:25:53;;;;;;;9.90;5.65;;;;;;;1.90;93.11;102958.25;4805144;29;20090;-83
2021/01/16 02:28:22;;;;;;;9.45;6.28;;;;;;;1.87;93.21;102955.59;4803975;29;20031;-84
2021/01/16 02:30:49;;;;;;;10.57;6.25;;;;;;;1.88;92.16;102964.28;4801630;29;20027;-84
2021/01/16 02:33:19;;;;;;;9.60;6.32;;;;;;;1.90;92.49;102955.66;4801472;29;20656;-84
2021/01/16 02:36:07;;;;;;;12.75;6.15;;;;;;;1.78;91.58;102951.03;4807727;29;20043;-84
2021/01/16 02:38:46;;;;;;;10.35;6.38;;;;;;;1.67;92.34;102928.13;4807212;29;20651;-83
2021/01/16 02:41:45;;;;;;;10.02;5.90;;;;;;;1.81;92.29;102953.72;4803230;29;20040;-84
2021/01/16 02:44:26;;;;;;;11.85;6.55;;;;;;;1.77;92.86;102935.34;4803956;29;20133;-84
2021/01/16 02:47:02;;;;;;;15.52;6.78;;;;;;;1.79;93.18;102944.06;4800353;29;20503;-84
2021/01/16 02:49:45;;;;;;;12.57;6.22;;;;;;;1.70;93.57;102926.47;4809205;29;20043;-83
2021/01/16 02:52:18;;;;;;;12.98;7.70;;;;;;;1.79;92.91;102944.06;4809627;29;20039;-83
2021/01/16 02:54:44;;;;;;;10.98;5.80;;;;;;;1.77;93.23;102936.22;4808690;29;20546;-83
2021/01/16 02:57:10;;;;;;;11.80;6.55;;;;;;;1.63;92.89;102913.25;4808990;29;20404;-83
2021/01/16 02:59:40;;;;;;;8.82;5.85;;;;;;;1.79;93.02;102928.44;4814089;29;20057;-83
2021/01/16 03:02:08;;;;;;;8.70;6.40;;;;;;;1.65;93.30;102919.38;4806552;29;20050;-83
2021/01/16 03:04:35;;;;;;;12.23;7.25;;;;;;;1.75;93.47;102918.75;4802653;29;20696;-83
2021/01/16 03:07:01;;;;;;;8.73;5.93;;;;;;;1.70;92.87;102910.81;4808230;29;20039;-83
2021/01/16 03:09:29;;;;;;;13.88;7.07;;;;;;;1.66;94.48;102918.56;4822606;29;20027;-83
2021/01/16 03:11:56;;;;;;;12.38;7.57;;;;;;;1.74;93.48;102907.47;4809517;29;20899;-83
2021/01/16 03:14:24;;;;;;;11.48;6.63;;;;;;;1.72;93.25;102909.16;4809128;29;20034;-83
2021/01/16 03:17:12;;;;;;;10.50;6.68;;;;;;;1.66;94.23;102909.00;4814265;29;20031;-83
2021/01/16 03:19:47;;;;;;;11.48;6.95;;;;;;;1.77;92.94;102902.34;4802823;29;20035;-83
2021/01/16 03:22:23;;;;;;;16.87;8.07;;;;;;;1.56;92.78;102880.94;4803865;29;20091;-83
2021/01/16 03:24:55;;;;;;;15.90;7.32;;;;;;;1.69;90.61;102874.31;4803120;29;20041;-83
2021/01/16 03:27:22;;;;;;;10.10;7.20;;;;;;;1.79;90.41;102892.81;4811045;29;20064;-83
2021/01/16 03:29:48;;;;;;;11.00;6.80;;;;;;;1.72;90.21;102871.78;4830422;29;20041;-83
2021/01/16 03:32:16;;;;;;;10.82;7.07;;;;;;;1.70;91.82;102883.88;4825084;29;20042;-83
2021/01/16 03:34:47;;;;;;;12.05;6.47;;;;;;;1.76;91.41;102879.72;4834708;29;20053;-85
2021/01/16 03:37:13;;;;;;;13.85;7.85;;;;;;;1.71;91.60;102880.44;4806628;29;20035;-85
2021/01/16 03:39:39;;;;;;;12.57;7.95;;;;;;;1.46;94.49;102869.41;4765712;30;20042;-85
2021/01/16 03:42:05;;;;;;;13.13;7.75;;;;;;;1.45;90.35;102864.13;4766720;30;20052;-85
2021/01/16 03:44:31;;;;;;;11.93;7.45;;;;;;;1.54;91.96;102880.91;4764407;30;20036;-85
2021/01/16 03:46:56;;;;;;;14.93;8.10;;;;;;;1.65;91.08;102878.53;4771750;30;20036;-85
2021/01/16 03:49:22;;;;;;;14.18;7.40;;;;;;;1.52;90.77;102866.94;4769586;30;20043;-85
2021/01/16 03:51:48;;;;;;;13.90;7.32;;;;;;;1.46;91.95;102878.97;4755574;30;20044;-83
2021/01/16 03:54:14;;;;;;;12.15;7.57;;;;;;;1.45;90.73;102864.13;4754911;30;20083;-83
2021/01/16 03:56:39;;;;;;;15.40;8.23;;;;;;;1.67;90.59;102886.44;4766533;30;20070;-82
2021/01/16 03:59:05;;;;;;;12.15;7.88;;;;;;;1.65;90.48;102888.09;4747305;30;20102;-82
2021/01/16 04:01:34;;;;;;;19.77;10.23;;;;;;;1.70;90.05;102886.47;4777594;30;20050;-84
2021/01/16 04:04:00;;;;;;;13.52;7.20;;;;;;;1.52;90.06;102860.88;4753297;30;20046;-83
2021/01/16 04:06:27;;;;;;;14.35;7.72;;;;;;;1.49;90.67;102868.59;4775036;30;20058;-84
2021/01/16 04:08:53;;;;;;;17.45;8.80;;;;;;;1.54;90.41;102848.75;4754688;30;20035;-82
2021/01/16 04:11:18;;;;;;;15.93;8.18;;;;;;;1.65;89.88;102873.34;4780437;29;20046;-83
2021/01/16 04:13:47;;;;;;;13.68;8.05;;;;;;;1.70;89.78;102860.41;4795718;29;20039;-84
2021/01/16 04:16:15;;;;;;;14.98;8.32;;;;;;;1.67;90.10;102856.03;4794920;29;20050;-84
2021/01/16 04:18:41;;;;;;;18.30;10.48;;;;;;;1.53;90.37;102834.84;4796197;29;20482;-83
2021/01/16 04:21:06;;;;;;;11.90;6.95;;;;;;;1.46;90.54;102827.72;4797409;29;20030;-82
2021/01/16 04:23:32;;;;;;;14.07;7.45;;;;;;;1.51;89.84;102831.31;4792739;29;20072;-81
2021/01/16 04:25:57;;;;;;;11.48;6.80;;;;;;;1.56;90.39;102847.06;4812792;29;20558;-81
2021/01/16 04:28:23;;;;;;;16.80;8.82;;;;;;;1.50;90.62;102845.16;4810025;29;20027;-84
2021/01/16 04:30:49;;;;;;;16.05;8.38;;;;;;;1.32;90.93;102818.66;4787106;29;20035;-83
2021/01/16 04:33:14;;;;;;;14.35;7.90;;;;;;;1.49;88.78;102826.91;4783500;29;20039;-83
2021/01/16 04:35:40;;;;;;;11.68;7.53;;;;;;;1.63;88.73;102850.69;4785857;29;20134;-84
2021/01/16 04:38:05;;;;;;;12.27;6.90;;;;;;;1.63;88.68;102843.75;4788485;29;20035;-83
2021/01/16 04:40:31;;;;;;;12.02;7.97;;;;;;;1.56;88.58;102836.66;4807480;29;20050;-84
2021/01/16 04:43:14;;;;;;;12.90;7.55;;;;;;;1.51;89.29;102831.31;4816289;29;20376;-83
2021/01/16 04:45:44;;;;;;;11.75;7.57;;;;;;;1.43;88.52;102812.00;4788792;29;20027;-83
2021/01/16 04:48:14;;;;;;;12.10;7.32;;;;;;;1.44;87.90;102802.44;4792242;29;20050;-83
2021/01/16 04:50:43;;;;;;;13.40;8.30;;;;;;;1.44;88.70;102800.72;4811126;29;20712;-84
2021/01/16 04:53:11;;;;;;;16.00;9.18;;;;;;;1.61;88.35;102831.50;4806099;29;20476;-84
2021/01/16 04:55:38;;;;;;;15.50;8.70;;;;;;;1.62;86.48;102830.69;4793827;29;20134;-83
2021/01/16 04:58:10;;;;;;;14.38;7.80;;;;;;;1.60;87.14;102821.94;4788839;29;20041;-83
2021/01/16 05:00:40;;;;;;;20.42;10.20;;;;;;;1.40;87.68;102787.56;4808303;29;20031;-83
2021/01/16 05:03:13;;;;;;;11.75;7.63;;;;;;;1.48;87.72;102805.16;4804594;29;20045;-83
2021/01/16 05:05:41;;;;;;;13.90;8.52;;;;;;;1.50;86.93;102797.38;4795014;29;20038;-83
2021/01/16 05:08:08;;;;;;;13.93;8.63;;;;;;;1.50;87.55;102807.81;4807029;29;20079;-84
2021/01/16 05:10:41;;;;;;;15.13;8.60;;;;;;;1.44;88.54;102805.94;4809783;29;20039;-84
2021/01/16 05:13:15;;;;;;;13.43;8.10;;;;;;;1.37;88.58;102803.16;4805466;29;20435;-84
2021/01/16 05:15:42;;;;;;;16.65;9.20;;;;;;;1.43;87.86;102804.19;4793181;29;20034;-84
2021/01/16 05:18:37;;;;;;;15.77;8.27;;;;;;;1.36;89.20;102798.78;4791292;29;20031;-84
2021/01/16 05:21:14;;;;;;;13.25;8.40;;;;;;;1.34;88.63;102787.44;4808845;29;20121;-84
2021/01/16 05:23:46;;;;;;;17.08;9.90;;;;;;;1.23;88.85;102763.72;4794702;29;20099;-84
2021/01/16 05:26:33;;;;;;;16.33;7.50;;;;;;;1.15;88.31;102768.72;4795757;29;20026;-84
2021/01/16 05:28:59;;;;;;;15.98;9.63;;;;;;;1.15;89.04;102752.22;4789545;29;20043;-84
2021/01/16 05:31:25;;;;;;;20.15;9.27;;;;;;;1.14;89.32;102766.97;4785440;29;20049;-83
2021/01/16 05:33:51;;;;;;;15.20;9.90;;;;;;;1.17;89.66;102774.88;4790248;29;20030;-85
2021/01/16 05:36:20;;;;;;;21.65;10.07;;;;;;;1.25;89.67;102782.88;4801448;29;20037;-82
2021/01/16 05:38:48;;;;;;;18.67;9.10;;;;;;;1.32;89.58;102774.38;4820206;29;20113;-82
2021/01/16 05:41:14;;;;;;;19.85;11.38;;;;;;;1.17;89.96;102772.28;4801213;29;20033;-83
2021/01/16 05:43:42;;;;;;;20.88;10.85;;;;;;;1.11;90.41;102759.09;4791944;29;20507;-83
2021/01/16 05:46:13;;;;;;;22.85;11.30;;;;;;;1.25;90.21;102782.88;4797146;29;20085;-82
2021/01/16 05:48:39;;;;;;;18.35;10.20;;;;;;;1.25;89.85;102773.31;4795133;29;20027;-82
2021/01/16 05:51:11;;;;;;;21.33;11.55;;;;;;;1.27;89.25;102768.19;4817183;29;20046;-82
2021/01/16 05:53:37;;;;;;;17.92;10.32;;;;;;;1.11;90.01;102756.50;4797958;29;20035;-82
2021/01/16 05:56:05;;;;;;;26.48;11.82;;;;;;;1.32;90.81;102770.91;4815295;29;20046;-81
2021/01/16 05:58:34;;;;;;;22.77;11.50;;;;;;;1.31;90.75;102767.41;4800495;29;20048;-83
2021/01/16 06:01:05;;;;;;;15.32;8.93;;;;;;;1.22;91.71;102759.38;4818886;29;20041;-81
2021/01/16 06:03:34;;;;;;;20.77;11.13;;;;;;;1.32;91.22;102766.56;4822024;29;20045;-80
2021/01/16 06:05:59;;;;;;;20.25;11.55;;;;;;;1.23;92.21;102764.59;4820421;29;20095;-84
2021/01/16 06:08:24;;;;;;;16.30;9.25;;;;;;;1.18;92.91;102757.53;4805134;29;20031;-81
2021/01/16 06:11:00;;;;;;;17.73;10.75;;;;;;;1.20;93.31;102755.81;4810893;29;20058;-81
2021/01/16 06:13:26;;;;;;;19.35;10.98;;;;;;;1.15;94.15;102753.09;4818904;29;20034;-82
2021/01/16 06:15:54;;;;;;;17.40;10.40;;;;;;;1.12;94.85;102752.16;4811921;29;20026;-82
2021/01/16 06:18:37;;;;;;;22.50;12.00;;;;;;;1.14;95.42;102742.66;4810503;29;20038;-82
2021/01/16 06:21:03;;;;;;;20.70;11.82;;;;;;;1.14;95.85;102743.53;4809287;29;20041;-82
2021/01/16 06:23:40;;;;;;;20.70;12.07;;;;;;;1.18;96.19;102753.19;4807335;29;20022;-83
2021/01/16 06:26:07;;;;;;;19.15;12.30;;;;;;;1.15;96.37;102755.72;4767829;30;20051;-82
2021/01/16 06:28:51;;;;;;;20.65;12.07;;;;;;;1.08;96.10;102748.59;4761895;30;20050;-82
2021/01/16 06:31:23;;;;;;;25.35;13.05;;;;;;;1.10;96.40;102748.63;4756511;30;20043;-83
2021/01/16 06:34:28;;;;;;;29.92;16.70;;;;;;;1.03;96.25;102743.28;4759310;30;20056;-83
2021/01/16 06:37:02;;;;;;;23.70;12.98;;;;;;;1.01;95.99;102731.94;4737358;30;20063;-82
2021/01/16 06:39:28;;;;;;;21.80;12.18;;;;;;;1.11;96.03;102735.66;4797224;29;20112;-82
2021/01/16 06:42:04;;;;;;;20.02;12.60;;;;;;;1.03;95.65;102739.78;4774813;30;20052;-82
2021/01/16 06:44:29;;;;;;;20.60;12.70;;;;;;;1.11;95.00;102740.00;4774948;30;20063;-82
2021/01/16 06:46:58;;;;;;;23.83;12.85;;;;;;;1.06;94.63;102731.19;4758724;30;20132;-82
2021/01/16 06:49:30;;;;;;;24.08;12.50;;;;;;;1.08;94.88;102729.50;4757595;30;20039;-82
2021/01/16 06:52:00;;;;;;;21.08;12.10;;;;;;;1.07;94.66;102733.81;4788753;29;20047;-83
2021/01/16 06:54:30;;;;;;;23.88;13.30;;;;;;;1.04;94.91;102726.81;4754804;30;20140;-82
2021/01/16 06:57:13;;;;;;;27.15;12.77;;;;;;;1.04;93.75;102715.50;4773189;30;20435;-83
2021/01/16 06:59:44;;;;;;;26.20;15.02;;;;;;;0.98;94.72;102716.25;4768245;30;20051;-82
2021/01/16 07:02:29;;;;;;;22.88;12.70;;;;;;;1.01;93.43;102724.16;4770218;30;20047;-82
2021/01/16 07:05:03;;;;;;;23.98;12.93;;;;;;;1.00;94.44;102713.66;4772582;30;20138;-82
2021/01/16 07:07:36;;;;;;;21.95;13.88;;;;;;;0.92;94.86;102720.44;4770674;30;20733;-84
2021/01/16 07:10:04;;;;;;;22.98;13.13;;;;;;;1.06;94.05;102721.66;4780091;30;20046;-82
2021/01/16 07:12:30;;;;;;;21.95;12.95;;;;;;;0.97;94.18;102724.03;4771146;30;20043;-82
2021/01/16 07:15:06;;;;;;;24.98;12.85;;;;;;;0.93;93.35;102722.19;4772725;30;20051;-82
2021/01/16 07:17:32;;;;;;;23.52;13.40;;;;;;;1.02;93.69;102720.69;4822108;29;20090;-83
2021/01/16 07:19:58;;;;;;;21.10;13.00;;;;;;;0.91;93.41;102713.47;4811227;29;20022;-83
2021/01/16 07:22:32;;;;;;;24.85;13.65;;;;;;;0.91;93.56;102711.75;4800681;29;20081;-82
2021/01/16 07:25:03;;;;;;;24.80;13.95;;;;;;;0.94;93.12;102717.00;4824608;29;20046;-82
2021/01/16 07:27:29;;;;;;;25.08;14.45;;;;;;;0.89;93.48;102717.72;4830159;29;20871;-82
2021/01/16 07:29:57;;;;;;;20.40;12.23;;;;;;;0.98;92.95;102715.38;4819989;29;20072;-82
2021/01/16 07:32:47;;;;;;;24.77;13.48;;;;;;;0.98;92.55;102713.63;4805176;29;20042;-82
2021/01/16 07:35:17;;;;;;;23.42;12.77;;;;;;;0.97;92.79;102703.19;4810592;29;20105;-82
2021/01/16 07:37:44;;;;;;;25.58;12.88;;;;;;;1.00;93.33;102713.66;4823702;29;20621;-82
2021/01/16 07:40:20;;;;;;;27.40;14.27;;;;;;;1.02;91.93;102706.78;4824498;29;20054;-83
2021/01/16 07:43:10;;;;;;;24.98;14.63;;;;;;;0.98;92.19;102692.81;4824743;29;20084;-85
2021/01/16 07:45:49;;;;;;;21.73;13.43;;;;;;;0.95;92.41;102702.25;4821336;29;20718;-83
2021/01/16 07:48:20;;;;;;;30.75;15.57;;;;;;;0.94;93.59;102703.97;4834358;29;20069;-83
2021/01/16 07:50:51;;;;;;;28.08;13.10;;;;;;;0.97;91.53;102690.16;4799865;29;20026;-83
2021/01/16 07:53:26;;;;;;;24.63;13.90;;;;;;;0.88;91.75;102677.81;4809415;29;20092;-83
2021/01/16 07:56:04;;;;;;;30.55;15.18;;;;;;;0.95;92.68;102682.31;4826841;29;20034;-83
2021/01/16 07:58:32;;;;;;;26.00;15.05;;;;;;;0.99;91.43;102678.94;4824113;29;20083;-82
2021/01/16 08:01:17;;;;;;;27.33;14.32;;;;;;;0.99;91.50;102678.06;4815544;29;20034;-83
2021/01/16 08:03:51;;;;;;;26.98;15.57;;;;;;;0.96;90.58;102681.47;4806428;29;20030;-83
2021/01/16 08:06:32;;;;;;;22.10;13.20;;;;;;;1.01;90.96;102686.81;4791831;29;20029;-83
2021/01/16 08:09:04;;;;;;;25.00;14.55;;;;;;;0.94;91.04;102674.47;4813267;29;20134;-83
2021/01/16 08:11:34;;;;;;;26.50;15.02;;;;;;;1.03;91.51;102670.38;4813379;29;21007;-83
2021/01/16 08:14:10;;;;;;;27.08;15.50;;;;;;;1.02;91.76;102660.78;4802903;29;20050;-83
2021/01/16 08:16:41;;;;;;;21.63;13.13;;;;;;;1.04;90.85;102668.63;4809333;29;20121;-84
2021/01/16 08:19:10;;;;;;;29.02;15.73;;;;;;;0.98;91.08;102655.47;4833481;29;20057;-83
2021/01/16 08:21:36;;;;;;;29.33;15.38;;;;;;;0.97;90.74;102641.59;4802698;29;20026;-82
2021/01/16 08:24:05;;;;;;;29.27;15.13;;;;;;;1.12;90.24;102648.00;4814275;29;20086;-82
2021/01/16 08:26:31;;;;;;;24.17;14.90;;;;;;;1.16;89.93;102644.63;4797321;29;20038;-82
2021/01/16 08:28:58;;;;;;;25.65;14.77;;;;;;;1.06;90.17;102643.53;4830676;29;20206;-83
2021/01/16 08:31:28;;;;;;;30.10;14.63;;;;;;;1.12;90.48;102630.66;4800048;29;20039;-83
2021/01/16 08:33:54;;;;;;;25.02;13.85;;;;;;;1.11;90.03;102639.31;4819648;29;20842;-83
2021/01/16 08:36:20;;;;;;;32.42;14.68;;;;;;;1.30;89.70;102637.97;4793414;29;20030;-83
2021/01/16 08:38:47;;;;;;;29.90;13.98;;;;;;;1.27;90.55;102631.00;4805311;29;20034;-83
2021/01/16 08:41:24;;;;;;;28.42;14.73;;;;;;;1.20;91.10;102629.06;4807454;29;20055;-83
2021/01/16 08:43:57;;;;;;;28.92;15.52;;;;;;;1.17;92.12;102626.41;4833307;29;20783;-83
2021/01/16 08:46:33;;;;;;;31.83;16.80;;;;;;;1.25;91.81;102630.06;4812557;29;20034;-82
2021/01/16 08:49:10;;;;;;;29.75;15.63;;;;;;;1.18;92.31;102620.34;4817891;29;20069;-83
2021/01/16 08:51:42;;;;;;;27.45;15.55;;;;;;;1.24;92.40;102620.50;4804680;29;20037;-83
2021/01/16 08:54:21;;;;;;;22.55;13.68;;;;;;;1.24;92.51;102612.66;4813505;29;20042;-83
2021/01/16 08:56:52;;;;;;;23.58;14.05;;;;;;;1.22;92.79;102603.97;4807627;29;20397;-83
2021/01/16 08:59:28;;;;;;;27.00;14.45;;;;;;;1.21;92.73;102609.16;4813454;29;20053;-83
2021/01/16 09:02:06;;;;;;;23.98;13.43;;;;;;;1.18;92.34;102601.25;4811794;29;20689;-82
2021/01/16 09:04:36;;;;;;;25.92;13.60;;;;;;;1.24;93.62;102598.78;4828953;29;20030;-82
2021/01/16 09:07:22;;;;;;;28.75;14.02;;;;;;;1.20;93.27;102591.72;4818011;29;20038;-83
2021/01/16 09:10:01;;;;;;;22.65;14.93;;;;;;;1.23;93.28;102597.91;4814407;29;20042;-83
2021/01/16 09:12:37;;;;;;;25.35;14.75;;;;;;;1.21;93.24;102597.00;4831867;29;20086;-83
2021/01/16 09:15:24;;;;;;;28.90;15.05;;;;;;;1.28;93.35;102601.47;4816604;29;20063;-83
2021/01/16 09:18:15;;;;;;;27.70;13.55;;;;;;;1.25;93.40;102600.53;4800542;29;20030;-83
2021/01/16 09:20:55;;;;;;;29.35;14.52;;;;;;;1.24;92.66;102601.38;4809196;29;20778;-83
2021/01/16 09:23:23;;;;;;;32.85;14.95;;;;;;;1.21;91.66;102585.69;4807454;29;20034;-83
2021/01/16 09:26:10;;;;;;;26.58;14.43;;;;;;;1.28;90.75;102591.06;4808641;29;20038;-83
2021/01/16 09:28:44;;;;;;;25.52;13.10;;;;;;;1.23;89.72;102579.66;4801283;29;20562;-83
2021/01/16 09:31:35;;;;;;;26.92;13.63;;;;;;;1.30;89.63;102580.66;4804662;29;20035;-82
2021/01/16 09:34:08;;;;;;;26.15;12.68;;;;;;;1.31;89.62;102585.06;4826888;29;20038;-82
2021/01/16 09:36:38;;;;;;;25.75;13.38;;;;;;;1.41;90.74;102593.94;4805466;29;20027;-83
2021/01/16 09:39:14;;;;;;;26.85;13.50;;;;;;;1.43;90.99;102581.81;4806205;29;20159;-83
2021/01/16 09:41:39;;;;;;;30.90;14.57;;;;;;;1.41;90.61;102586.13;4825629;29;20114;-83
2021/01/16 09:44:05;;;;;;;24.02;12.65;;;;;;;1.35;89.78;102579.03;4811150;29;20420;-82
2021/01/16 09:46:39;;;;;;;29.42;15.73;;;;;;;1.37;90.99;102585.19;4825111;29;20035;-82
2021/01/16 09:49:07;;;;;;;28.75;15.30;;;;;;;1.33;91.38;102567.72;4808083;29;20039;-82
2021/01/16 09:51:34;;;;;;;25.95;12.48;;;;;;;1.34;90.40;102566.88;4828797;29;20037;-83
2021/01/16 09:54:20;;;;;;;26.20;13.40;;;;;;;1.40;89.92;102580.00;4824061;29;20038;-83
2021/01/16 09:56:49;;;;;;;24.87;13.47;;;;;;;1.37;90.40;102564.34;4801905;29;20089;-82
2021/01/16 09:59:23;;;;;;;25.17;13.98;;;;;;;1.47;90.36;102588.84;4810576;29;20055;-82
2021/01/16 10:02:24;;;;;;;22.05;11.13;;;;;;;1.41;88.40;102583.53;4823670;29;20479;-82
2021/01/16 10:04:51;;;;;;;22.92;11.30;;;;;;;1.38;88.25;102570.41;4820996;29;20047;-82
2021/01/16 10:07:16;;;;;;;21.00;11.25;;;;;;;1.46;88.19;102568.88;4812139;29;20037;-83
2021/01/16 10:09:49;;;;;;;23.95;13.25;;;;;;;1.43;88.61;102574.00;4828308;29;20031;-83
2021/01/16 10:12:40;;;;;;;21.58;11.10;;;;;;;1.45;87.65;102583.59;4808919;29;20038;-83
2021/01/16 10:15:12;;;;;;;21.63;10.88;;;;;;;1.49;88.41;102574.13;4809249;29;20260;-83
2021/01/16 10:17:56;;;;;;;22.10;11.35;;;;;;;1.43;88.05;102558.38;4825367;29;20473;-83
2021/01/16 10:20:32;;;;;;;18.65;10.00;;;;;;;1.47;88.42;102561.06;4818658;29;20811;-83
2021/01/16 10:22:59;;;;;;;17.13;7.70;;;;;;;1.49;86.54;102550.66;4807532;29;20088;-83
2021/01/16 10:25:40;;;;;;;18.65;10.65;;;;;;;1.52;86.69;102542.94;4809790;29;20085;-83
2021/01/16 10:28:06;;;;;;;15.23;8.32;;;;;;;1.56;85.29;102549.97;4804066;29;20061;-83
2021/01/16 10:30:32;;;;;;;15.02;7.85;;;;;;;1.54;84.64;102536.00;4811171;29;20096;-83
2021/01/16 10:32:59;;;;;;;16.70;8.50;;;;;;;1.61;84.88;102545.72;4808715;29;20068;-83
2021/01/16 10:35:29;;;;;;;17.27;8.35;;;;;;;1.71;84.87;102544.16;4826142;29;20061;-82
2021/01/16 10:37:58;;;;;;;14.95;6.25;;;;;;;1.71;82.14;102538.97;4810125;29;20287;-83
2021/01/16 10:40:29;;;;;;;13.77;7.18;;;;;;;1.63;81.73;102520.56;4810616;29;20031;-83
2021/01/16 10:42:59;;;;;;;12.45;6.25;;;;;;;1.82;81.15;102527.00;4808607;29;20708;-83
2021/01/16 10:45:32;;;;;;;10.15;5.20;;;;;;;1.76;79.87;102514.72;4813151;29;20833;-83
2021/01/16 10:48:16;;;;;;;12.43;5.25;;;;;;;1.80;80.84;102515.63;4830632;29;20060;-82
2021/01/16 10:50:44;;;;;;;8.65;5.80;;;;;;;1.79;82.10;102511.28;4811800;29;20728;-83
2021/01/16 10:53:13;;;;;;;11.30;5.10;;;;;;;1.85;80.20;102502.69;4808338;29;20131;-83
2021/01/16 10:55:56;;;;;;;12.02;5.20;;;;;;;1.80;79.88;102493.06;4802786;29;20523;-83
2021/01/16 10:58:23;;;;;;;9.50;4.82;;;;;;;1.75;78.82;102480.78;4804637;29;20046;-82
2021/01/16 11:00:56;;;;;;;9.27;4.78;;;;;;;1.73;78.75;102493.81;4826173;29;20054;-83
2021/01/16 11:03:25;;;;;;;9.70;5.88;;;;;;;1.81;80.02;102479.19;4801882;29;20042;-83
2021/01/16 11:05:53;;;;;;;8.98;4.63;;;;;;;1.80;80.26;102476.53;4818790;29;20027;-83
2021/01/16 11:08:26;;;;;;;7.45;4.32;;;;;;;1.77;79.13;102466.06;4835016;29;20049;-83
2021/01/16 11:10:52;;;;;;;7.72;4.68;;;;;;;1.76;80.16;102465.19;4809639;29;20072;-84
2021/01/16 11:13:24;;;;;;;7.35;4.10;;;;;;;1.74;78.67;102466.00;4830533;29;20387;-83
2021/01/16 11:15:52;;;;;;;9.23;4.38;;;;;;;1.75;77.94;102462.53;4811245;29;20052;-83
2021/01/16 11:18:36;;;;;;;7.82;4.28;;;;;;;1.77;78.48;102450.44;4808714;29;20034;-83
2021/01/16 11:21:05;;;;;;;14.38;4.80;;;;;;;1.71;77.69;102443.38;4803113;29;20551;-83
2021/01/16 11:23:46;;;;;;;8.48;4.50;;;;;;;1.75;78.43;102432.13;4806869;29;20103;-83
2021/01/16 11:26:14;;;;;;;10.50;4.72;;;;;;;1.80;78.38;102430.47;4815613;29;20034;-83
2021/01/16 11:28:53;;;;;;;7.38;4.22;;;;;;;1.83;77.54;102420.97;4814330;29;20030;-83
2021/01/16 11:31:31;;;;;;;15.57;5.22;;;;;;;1.86;79.03;102416.69;4829150;29;20393;-83
2021/01/16 11:34:11;;;;;;;10.13;4.80;;;;;;;1.78;78.30;102413.06;4807319;29;20022;-84
2021/01/16 11:37:00;;;;;;;7.00;4.15;;;;;;;1.80;78.48;102399.19;4816593;29;20054;-83
2021/01/16 11:39:43;;;;;;;9.98;4.88;;;;;;;1.78;79.36;102397.44;4811489;29;20031;-83